Time;durP1;ratioP1;P1;durP2;ratioP2;P2;SDS_P1;SDS_P2;PMS_P1;PMS_P2;Temp;Humidity;BMP_temperature;BMP_pressure;BME280_temperature;BME280_humidity;BME280_pressure;Samples;Min_cycle;Max_cycle;Signal;HPM_P1;HPM_P2
2023/01/23 00:01:14;;;;;;;;;;;;;;;3.19;89.19;103203.78;7359461;19;19926;-61
2023/01/23 00:03:41;;;;;;;;;;;;;;;3.16;89.45;103203.88;7360517;19;20205;-61
2023/01/23 00:06:12;;;;;;;;;;;;;;;3.15;89.52;103197.00;7358216;19;19919;-60
2023/01/23 00:08:40;;;;;;;;;;;;;;;3.13;89.79;103184.03;7358563;19;21072;-55
2023/01/23 00:11:08;;;;;;;;;;;;;;;3.15;90.25;103174.41;7357917;19;19918;-60
2023/01/23 00:13:35;;;;;;;;;;;;;;;3.15;90.29;103171.00;7353378;19;19930;-59
2023/01/23 00:16:09;;;;;;;;;;;;;;;3.11;90.04;103161.56;7355247;19;19930;-59
2023/01/23 00:18:35;;;;;;;;;;;;;;;3.06;89.92;103174.69;7361843;19;19923;-60
2023/01/23 00:21:03;;;;;;;;;;;;;;;3.05;90.13;103172.16;7358008;19;20405;-59
2023/01/23 00:23:30;;;;;;;;;;;;;;;3.03;89.90;103160.94;7359916;19;19918;-59
2023/01/23 00:26:07;;;;;;;;;;;;;;;3.04;90.15;103167.84;7358849;19;21051;-60
2023/01/23 00:28:34;;;;;;;;;;;;;;;3.03;90.41;103161.81;7358861;19;19922;-61
2023/01/23 00:31:01;;;;;;;;;;;;;;;3.03;90.37;103160.94;7357514;19;19922;-58
2023/01/23 00:33:28;;;;;;;;;;;;;;;3.02;90.21;103162.69;7359311;19;20332;-59
2023/01/23 00:35:55;;;;;;;;;;;;;;;2.99;90.03;103168.84;7356047;19;19919;-57
2023/01/23 00:38:22;;;;;;;;;;;;;;;3.02;90.33;103160.09;7358573;19;19918;-59
2023/01/23 00:40:49;;;;;;;;;;;;;;;2.99;89.76;103149.81;7356250;19;20279;-57
2023/01/23 00:43:16;;;;;;;;;;;;;;;2.97;89.75;103164.56;7358466;19;19923;-59
2023/01/23 00:45:42;;;;;;;;;;;;;;;2.93;89.79;103165.56;7357898;19;19931;-57
2023/01/23 00:48:09;;;;;;;;;;;;;;;2.89;89.38;103177.81;7357597;19;20594;-58
2023/01/23 00:50:36;;;;;;;;;;;;;;;2.86;89.45;103172.69;7356534;19;20577;-60
2023/01/23 00:53:02;;;;;;;;;;;;;;;2.84;89.62;103184.03;7358591;19;19923;-54
2023/01/23 00:55:29;;;;;;;;;;;;;;;2.84;89.90;103178.84;7355687;19;19918;-61
2023/01/23 00:57:56;;;;;;;;;;;;;;;2.83;90.13;103178.00;7356468;19;20154;-57
2023/01/23 01:00:23;;;;;;;;;;;;;;;2.83;90.12;103171.94;7357703;19;19930;-58
2023/01/23 01:02:49;;;;;;;;;;;;;;;2.80;89.78;103177.22;7353943;19;20317;-61
2023/01/23 01:05:17;;;;;;;;;;;;;;;2.78;89.90;103177.28;7357452;19;19922;-58
2023/01/23 01:07:52;;;;;;;;;;;;;;;2.76;89.75;103181.66;7355544;19;20029;-61
2023/01/23 01:10:18;;;;;;;;;;;;;;;2.75;89.42;103172.16;7353807;19;19933;-59
2023/01/23 01:12:46;;;;;;;;;;;;;;;2.74;89.84;103174.81;7354732;19;19919;-60
2023/01/23 01:15:20;;;;;;;;;;;;;;;2.72;89.44;103168.78;7353900;19;19933;-61
2023/01/23 01:17:47;;;;;;;;;;;;;;;2.72;89.58;103169.66;7357339;19;20288;-57
2023/01/23 01:20:14;;;;;;;;;;;;;;;2.70;89.54;103173.16;7357243;19;19943;-60
2023/01/23 01:22:41;;;;;;;;;;;;;;;2.68;89.35;103174.97;7357364;19;20463;-56
2023/01/23 01:25:08;;;;;;;;;;;;;;;2.66;89.49;103181.97;7363754;19;19926;-59
2023/01/23 01:27:34;;;;;;;;;;;;;;;2.63;89.67;103182.91;7363628;19;21908;-58
2023/01/23 01:30:02;;;;;;;;;;;;;;;2.64;89.93;103184.63;7364602;19;19932;-59
2023/01/23 01:32:29;;;;;;;;;;;;;;;2.63;89.72;103189.84;7362621;19;19922;-60
2023/01/23 01:34:55;;;;;;;;;;;;;;;2.61;89.55;103189.88;7363425;19;21485;-58
2023/01/23 01:37:24;;;;;;;;;;;;;;;2.63;89.80;103188.09;7364545;19;19914;-57
2023/01/23 01:39:50;;;;;;;;;;;;;;;2.67;89.84;103173.28;7359292;19;20719;-60
2023/01/23 01:42:17;;;;;;;;;;;;;;;2.67;89.76;103161.13;7362281;19;20527;-61
2023/01/23 01:44:52;;;;;;;;;;;;;;;2.66;89.59;103166.38;7362815;19;19927;-58
2023/01/23 01:47:18;;;;;;;;;;;;;;;2.66;89.73;103167.22;7361973;19;19922;-59
2023/01/23 01:49:45;;;;;;;;;;;;;;;2.67;89.73;103174.13;7362954;19;19914;-59
2023/01/23 01:52:13;;;;;;;;;;;;;;;2.64;89.53;103171.63;7361838;19;19911;-60
2023/01/23 01:54:46;;;;;;;;;;;;;;;2.63;89.40;103162.13;7360172;19;19950;-57
2023/01/23 01:57:12;;;;;;;;;;;;;;;2.62;89.72;103160.41;7361219;19;19926;-59
2023/01/23 01:59:46;;;;;;;;;;;;;;;2.60;89.56;103162.19;7361531;19;19940;-59
2023/01/23 02:02:18;;;;;;;;;;;;;;;2.57;89.98;103170.09;7363235;19;19926;-57
2023/01/23 02:04:47;;;;;;;;;;;;;;;2.54;89.47;103167.56;7359971;19;19931;-59
2023/01/23 02:07:19;;;;;;;;;;;;;;;2.53;89.48;103171.06;7361744;19;19919;-58
2023/01/23 02:09:46;;;;;;;;;;;;;;;2.51;89.57;103171.09;7360332;19;20690;-60
2023/01/23 02:12:13;;;;;;;;;;;;;;;2.49;89.55;103180.69;7357828;19;19926;-58
2023/01/23 02:14:39;;;;;;;;;;;;;;;2.47;89.20;103177.28;7356090;19;19929;-59
2023/01/23 02:17:06;;;;;;;;;;;;;;;2.44;89.33;103173.91;7360575;19;19957;-57
2023/01/23 02:19:39;;;;;;;;;;;;;;;2.41;89.12;103182.66;7361501;19;20891;-58
2023/01/23 02:22:25;;;;;;;;;;;;;;;2.39;89.11;103186.16;7362596;19;19934;-59
2023/01/23 02:24:58;;;;;;;;;;;;;;;2.36;88.95;103191.44;7358896;19;19927;-56
2023/01/23 02:27:25;;;;;;;;;;;;;;;2.34;88.99;103190.63;7362091;19;20396;-59
2023/01/23 02:29:55;;;;;;;;;;;;;;;2.31;88.59;103194.19;7361764;19;19926;-61
2023/01/23 02:32:23;;;;;;;;;;;;;;;2.31;88.60;103206.31;7361965;19;19918;-58
2023/01/23 02:34:53;;;;;;;;;;;;;;;2.30;88.64;103209.78;7361555;19;19919;-58
2023/01/23 02:37:20;;;;;;;;;;;;;;;2.31;88.53;103212.34;7361325;19;19922;-58
2023/01/23 02:39:47;;;;;;;;;;;;;;;2.32;88.88;103208.88;7359401;19;19966;-58
2023/01/23 02:42:14;;;;;;;;;;;;;;;2.33;89.12;103207.13;7359972;19;19927;-59
2023/01/23 02:44:40;;;;;;;;;;;;;;;2.31;88.65;103217.56;7362014;19;20034;-58
2023/01/23 02:47:10;;;;;;;;;;;;;;;2.32;88.74;103228.78;7361560;19;19922;-59
2023/01/23 02:49:38;;;;;;;;;;;;;;;2.32;88.45;103216.66;7360925;19;19919;-57
2023/01/23 02:52:05;;;;;;;;;;;;;;;2.33;88.56;103220.97;7361291;19;19918;-60
2023/01/23 02:54:32;;;;;;;;;;;;;;;2.29;88.08;103221.06;7360678;19;19937;-58
2023/01/23 02:56:58;;;;;;;;;;;;;;;2.27;88.34;103222.88;7359513;19;20569;-60
2023/01/23 03:02:11;;;;;;;;;;;;;;;2.24;88.11;103225.53;7360575;19;19927;-59
2023/01/23 03:04:37;;;;;;;;;;;;;;;2.21;88.00;103229.06;7355575;19;20439;-61
2023/01/23 03:07:04;;;;;;;;;;;;;;;2.21;88.09;103231.66;7359246;19;19930;-61
2023/01/23 03:09:32;;;;;;;;;;;;;;;2.20;88.29;103236.88;7358843;19;19946;-57
2023/01/23 03:11:59;;;;;;;;;;;;;;;2.19;88.34;103243.81;7362626;19;19926;-53
2023/01/23 03:14:27;;;;;;;;;;;;;;;2.18;88.58;103238.69;7359290;19;19918;-60
2023/01/23 03:16:54;;;;;;;;;;;;;;;2.20;88.48;103237.75;7356115;19;20018;-59
2023/01/23 03:19:22;;;;;;;;;;;;;;;2.23;88.48;103229.03;7360304;19;20047;-60
2023/01/23 03:21:49;;;;;;;;;;;;;;;2.22;88.10;103229.94;7359649;19;19941;-61
2023/01/23 03:24:17;;;;;;;;;;;;;;;2.19;88.11;103227.38;7360621;19;19919;-60
2023/01/23 03:26:46;;;;;;;;;;;;;;;2.14;87.79;103230.09;7361440;19;19922;-58
2023/01/23 03:32:02;;;;;;;;;;;;;;;1.98;86.69;103240.00;7360145;19;20281;-59
2023/01/23 03:34:30;;;;;;;;;;;;;;;1.91;86.93;103240.22;7359539;19;20293;-60
2023/01/23 03:36:57;;;;;;;;;;;;;;;1.83;86.97;103242.16;7359163;19;19929;-59
2023/01/23 03:42:20;;;;;;;;;;;;;;;1.73;86.53;103244.09;7355472;19;19999;-58
2023/01/23 03:44:47;;;;;;;;;;;;;;;1.68;87.23;103246.78;7357619;19;19926;-61
2023/01/23 03:47:13;;;;;;;;;;;;;;;1.67;87.20;103239.06;7357939;19;19934;-57
2023/01/23 03:49:40;;;;;;;;;;;;;;;1.63;87.63;103245.19;7356386;19;19918;-60
2023/01/23 03:52:07;;;;;;;;;;;;;;;1.59;87.68;103244.41;7361210;19;19925;-60
2023/01/23 03:54:33;;;;;;;;;;;;;;;1.54;87.83;103240.22;7361551;19;19919;-58
2023/01/23 03:57:00;;;;;;;;;;;;;;;1.57;88.38;103242.75;7357722;19;19950;-57
2023/01/23 03:59:27;;;;;;;;;;;;;;;1.62;88.79;103246.09;7360595;19;19939;-56
2023/01/23 04:01:54;;;;;;;;;;;;;;;1.66;89.25;103246.00;7359782;19;19946;-63
2023/01/23 04:04:21;;;;;;;;;;;;;;;1.68;88.63;103243.34;7359471;19;19927;-59
2023/01/23 04:06:48;;;;;;;;;;;;;;;1.70;88.84;103239.84;7359070;19;19956;-59
2023/01/23 04:09:14;;;;;;;;;;;;;;;1.75;88.65;103252.69;7359830;19;20582;-60
2023/01/23 04:11:41;;;;;;;;;;;;;;;1.79;87.99;103259.53;7356342;19;19927;-60
2023/01/23 04:14:08;;;;;;;;;;;;;;;1.76;87.79;103254.41;7357091;19;19930;-60
2023/01/23 04:16:34;;;;;;;;;;;;;;;1.77;87.89;103266.50;7352583;19;19923;-58
2023/01/23 04:19:01;;;;;;;;;;;;;;;1.73;87.21;103257.06;7355989;19;19948;-60
2023/01/23 04:21:28;;;;;;;;;;;;;;;1.73;87.31;103258.84;7357687;19;19941;-60
2023/01/23 04:23:55;;;;;;;;;;;;;;;1.73;87.26;103262.25;7357724;19;20426;-57
2023/01/23 04:26:21;;;;;;;;;;;;;;;1.73;87.29;103258.84;7354590;19;19919;-57
2023/01/23 04:28:48;;;;;;;;;;;;;;;1.70;87.17;103254.56;7357180;19;19927;-58
2023/01/23 04:31:15;;;;;;;;;;;;;;;1.68;86.84;103248.53;7356935;19;19923;-57
2023/01/23 04:33:42;;;;;;;;;;;;;;;1.64;87.27;103247.75;7356387;19;19990;-59
2023/01/23 04:36:09;;;;;;;;;;;;;;;1.62;87.13;103244.38;7356346;19;19915;-61
2023/01/23 04:38:36;;;;;;;;;;;;;;;1.60;87.33;103248.72;7358287;19;19942;-59
2023/01/23 04:41:03;;;;;;;;;;;;;;;1.55;87.25;103253.16;7354713;19;19926;-62
2023/01/23 04:43:29;;;;;;;;;;;;;;;1.49;86.72;103249.84;7357138;19;19919;-58
2023/01/23 04:45:56;;;;;;;;;;;;;;;1.42;86.81;103258.66;7352000;19;19930;-59
2023/01/23 04:48:23;;;;;;;;;;;;;;;1.37;87.69;103252.72;7358566;19;20331;-55
2023/01/23 04:50:50;;;;;;;;;;;;;;;1.26;87.59;103253.81;7354976;19;21009;-58
2023/01/23 04:53:17;;;;;;;;;;;;;;;1.28;88.41;103254.63;7356072;19;20372;-56
2023/01/23 04:55:45;;;;;;;;;;;;;;;1.30;89.62;103254.59;7356145;19;19923;-61
2023/01/23 04:58:12;;;;;;;;;;;;;;;1.25;89.33;103257.28;7355221;19;20482;-61
2023/01/23 05:00:39;;;;;;;;;;;;;;;1.21;88.58;103265.16;7355695;19;19927;-58
2023/01/23 05:03:05;;;;;;;;;;;;;;;1.16;87.85;103252.31;7360161;19;20284;-60
2023/01/23 05:05:32;;;;;;;;;;;;;;;1.20;88.55;103250.50;7357324;19;20341;-58
2023/01/23 05:07:59;;;;;;;;;;;;;;;1.20;88.80;103251.34;7356651;19;19939;-61
2023/01/23 05:10:26;;;;;;;;;;;;;;;1.16;88.22;103251.44;7356258;19;20718;-60
2023/01/23 05:12:52;;;;;;;;;;;;;;;1.11;87.93;103254.13;7355428;19;19933;-58
2023/01/23 05:15:20;;;;;;;;;;;;;;;1.08;87.98;103248.16;7358206;19;19922;-56
2023/01/23 05:17:47;;;;;;;;;;;;;;;1.05;87.90;103243.91;7352195;19;19963;-60
2023/01/23 05:20:14;;;;;;;;;;;;;;;1.05;87.39;103250.81;7353926;19;19923;-58
2023/01/23 05:22:51;;;;;;;;;;;;;;;1.04;87.31;103239.59;7355610;19;19919;-59
2023/01/23 05:25:19;;;;;;;;;;;;;;;1.05;87.86;103243.03;7352880;19;19919;-59
2023/01/23 05:27:46;;;;;;;;;;;;;;;1.08;87.97;103248.16;7356478;19;19933;-55
2023/01/23 05:30:13;;;;;;;;;;;;;;;1.06;87.54;103249.94;7354780;19;19931;-59
2023/01/23 05:32:39;;;;;;;;;;;;;;;1.06;88.15;103244.75;7356834;19;19926;-58
2023/01/23 05:35:06;;;;;;;;;;;;;;;1.05;87.90;103236.13;7355824;19;19947;-56
2023/01/23 05:37:33;;;;;;;;;;;;;;;1.05;87.99;103236.13;7355362;19;19918;-58
2023/01/23 05:40:00;;;;;;;;;;;;;;;1.05;88.12;103246.50;7354031;19;19926;-58
2023/01/23 05:42:26;;;;;;;;;;;;;;;1.04;88.16;103243.91;7355134;19;19926;-60
2023/01/23 05:44:53;;;;;;;;;;;;;;;1.05;88.46;103240.44;7355675;19;19926;-60
2023/01/23 05:47:20;;;;;;;;;;;;;;;1.03;88.24;103235.28;7357129;19;20457;-58
2023/01/23 05:49:47;;;;;;;;;;;;;;;1.03;88.70;103239.63;7356537;19;19954;-57
2023/01/23 05:52:13;;;;;;;;;;;;;;;1.05;89.57;103237.84;7354219;19;19935;-59
2023/01/23 05:54:45;;;;;;;;;;;;;;;1.05;89.45;103232.69;7354451;19;19911;-56
2023/01/23 05:57:12;;;;;;;;;;;;;;;1.03;89.48;103248.25;7352650;19;19923;-58
2023/01/23 05:59:38;;;;;;;;;;;;;;;1.03;89.25;103243.06;7356171;19;20571;-59
2023/01/23 06:02:05;;;;;;;;;;;;;;;1.04;88.91;103244.78;7353922;19;19918;-58
2023/01/23 06:04:32;;;;;;;;;;;;;;;1.04;89.13;103238.72;7353739;19;20486;-55
2023/01/23 06:06:58;;;;;;;;;;;;;;;1.02;89.19;103249.13;7354685;19;19969;-58
2023/01/23 06:09:25;;;;;;;;;;;;;;;1.05;89.77;103258.59;7352434;19;19926;-57
2023/01/23 06:11:52;;;;;;;;;;;;;;;1.01;90.00;103250.03;7362490;19;20030;-60
2023/01/23 06:14:18;;;;;;;;;;;;;;;0.99;90.32;103254.38;7363538;19;19919;-57
2023/01/23 06:16:45;;;;;;;;;;;;;;;0.96;90.22;103257.06;7361865;19;19927;-57
2023/01/23 06:19:12;;;;;;;;;;;;;;;0.95;89.50;103259.66;7355796;19;19929;-59
2023/01/23 06:21:38;;;;;;;;;;;;;;;0.90;88.94;103256.31;7360349;19;20270;-58
2023/01/23 06:24:05;;;;;;;;;;;;;;;0.86;88.42;103264.13;7361433;19;19941;-54
2023/01/23 06:26:32;;;;;;;;;;;;;;;0.83;88.41;103268.53;7363096;19;19942;-61
2023/01/23 06:28:58;;;;;;;;;;;;;;;0.82;88.38;103267.66;7359913;19;19942;-59
2023/01/23 06:31:25;;;;;;;;;;;;;;;0.82;88.68;103264.22;7362154;19;20260;-57
2023/01/23 06:33:52;;;;;;;;;;;;;;;0.81;88.49;103270.31;7362102;19;21959;-58
2023/01/23 06:36:19;;;;;;;;;;;;;;;0.80;88.73;103264.25;7359959;19;20002;-60
2023/01/23 06:38:45;;;;;;;;;;;;;;;0.82;88.71;103267.66;7361985;19;19915;-59
2023/01/23 06:41:12;;;;;;;;;;;;;;;0.87;88.80;103275.34;7360710;19;20295;-61
2023/01/23 06:43:39;;;;;;;;;;;;;;;0.88;88.83;103271.88;7362485;19;19923;-59
2023/01/23 06:46:08;;;;;;;;;;;;;;;0.91;88.31;103284.78;7362226;19;20576;-58
2023/01/23 06:48:35;;;;;;;;;;;;;;;0.90;88.40;103284.81;7361652;19;19934;-64
2023/01/23 06:51:02;;;;;;;;;;;;;;;0.91;87.92;103278.75;7360354;19;19951;-56
2023/01/23 06:53:30;;;;;;;;;;;;;;;0.89;87.84;103289.13;7362606;19;19927;-58
2023/01/23 06:56:00;;;;;;;;;;;;;;;0.86;87.30;103290.03;7362901;19;20581;-61
2023/01/23 06:58:27;;;;;;;;;;;;;;;0.83;86.80;103294.44;7357692;19;19930;-60
2023/01/23 07:00:54;;;;;;;;;;;;;;;0.77;86.33;103290.22;7358626;19;19950;-58
2023/01/23 07:03:21;;;;;;;;;;;;;;;0.73;86.13;103290.31;7359580;19;19925;-59
2023/01/23 07:05:48;;;;;;;;;;;;;;;0.67;85.65;103293.84;7358898;19;20428;-55
2023/01/23 07:08:15;;;;;;;;;;;;;;;0.59;85.49;103284.53;7361819;19;19929;-60
2023/01/23 07:10:42;;;;;;;;;;;;;;;0.54;85.72;103283.75;7358820;19;19962;-59
2023/01/23 07:13:10;;;;;;;;;;;;;;;0.48;85.85;103284.72;7359906;19;19971;-57
2023/01/23 07:15:37;;;;;;;;;;;;;;;0.43;85.95;103286.53;7361328;19;21502;-58
2023/01/23 07:18:06;;;;;;;;;;;;;;;0.39;86.08;103290.91;7358276;19;19926;-58
2023/01/23 07:20:33;;;;;;;;;;;;;;;0.39;86.19;103277.97;7353826;19;19961;-56
2023/01/23 07:22:59;;;;;;;;;;;;;;;0.39;86.45;103285.75;7357372;19;20432;-55
2023/01/23 07:25:29;;;;;;;;;;;;;;;0.41;86.41;103288.28;7359742;19;20022;-57
2023/01/23 07:27:56;;;;;;;;;;;;;;;0.41;86.46;103288.28;7359484;19;19930;-57
2023/01/23 07:30:22;;;;;;;;;;;;;;;0.40;86.48;103289.19;7358982;19;19911;-58
2023/01/23 07:32:49;;;;;;;;;;;;;;;0.43;86.87;103289.13;7359252;19;19923;-60
2023/01/23 07:35:16;;;;;;;;;;;;;;;0.43;86.84;103300.34;7357968;19;19930;-56
2023/01/23 07:37:43;;;;;;;;;;;;;;;0.45;86.50;103292.56;7357319;19;19922;-60
2023/01/23 07:40:10;;;;;;;;;;;;;;;0.43;86.37;103292.56;7357174;19;20080;-59
2023/01/23 07:42:37;;;;;;;;;;;;;;;0.50;86.85;103305.41;7359102;19;19921;-60
2023/01/23 07:45:08;;;;;;;;;;;;;;;0.52;86.68;103306.22;7356209;19;20465;-61
2023/01/23 07:47:38;;;;;;;;;;;;;;;0.54;87.05;103304.47;7360726;19;19919;-61
2023/01/23 07:50:05;;;;;;;;;;;;;;;0.59;86.68;103302.66;7358781;19;20633;-59
2023/01/23 07:52:32;;;;;;;;;;;;;;;0.63;86.87;103304.31;7359004;19;19934;-59
2023/01/23 07:58:12;;;;;;;;;;;;;;;0.65;86.90;103303.41;7346949;19;19922;-61
2023/01/23 08:00:40;;;;;;;;;;;;;;;0.64;86.58;103293.06;7358355;19;20665;-61
2023/01/23 08:03:07;;;;;;;;;;;;;;;0.67;86.78;103299.03;7356976;19;19961;-60
2023/01/23 08:05:34;;;;;;;;;;;;;;;0.73;87.08;103300.66;7355950;19;20652;-61
2023/01/23 08:08:00;;;;;;;;;;;;;;;0.74;86.61;103294.59;7356076;19;20344;-60
2023/01/23 08:10:39;;;;;;;;;;;;;;;0.73;86.45;103296.34;7356196;19;19939;-58
2023/01/23 08:13:06;;;;;;;;;;;;;;;0.76;86.60;103292.84;7357517;19;19914;-64
2023/01/23 08:15:33;;;;;;;;;;;;;;;0.79;86.60;103303.16;7360494;19;19961;-63
2023/01/23 08:17:59;;;;;;;;;;;;;;;0.78;86.12;103294.50;7358219;19;20501;-62
2023/01/23 08:20:26;;;;;;;;;;;;;;;0.79;86.15;103291.06;7357291;19;19926;-59
2023/01/23 08:22:53;;;;;;;;;;;;;;;0.80;85.74;103285.00;7360720;19;19937;-60
2023/01/23 08:25:20;;;;;;;;;;;;;;;0.80;85.55;103276.38;7359983;19;19951;-58
2023/01/23 08:27:47;;;;;;;;;;;;;;;0.79;85.59;103280.69;7358777;19;20285;-59
2023/01/23 08:30:14;;;;;;;;;;;;;;;0.82;85.59;103285.78;7358203;19;20871;-59
2023/01/23 08:32:40;;;;;;;;;;;;;;;0.86;86.03;103277.06;7359478;19;19915;-58
2023/01/23 08:35:07;;;;;;;;;;;;;;;0.88;85.53;103284.81;7362738;19;19926;-61
2023/01/23 08:37:35;;;;;;;;;;;;;;;0.90;85.62;103274.44;7359203;19;19922;-59
2023/01/23 08:40:03;;;;;;;;;;;;;;;0.90;85.42;103277.88;7358284;19;19919;-59
2023/01/23 08:42:29;;;;;;;;;;;;;;;0.92;85.08;103280.44;7358078;19;20242;-60
2023/01/23 08:44:56;;;;;;;;;;;;;;;0.93;84.95;103274.38;7358857;19;20416;-60
2023/01/23 08:47:23;;;;;;;;;;;;;;;0.96;84.85;103284.69;7360556;19;19921;-57
2023/01/23 08:49:49;;;;;;;;;;;;;;;1.01;85.10;103283.72;7359795;19;20481;-58
2023/01/23 08:52:16;;;;;;;;;;;;;;;1.04;84.92;103275.88;7360754;19;20493;-60
2023/01/23 08:54:45;;;;;;;;;;;;;;;1.11;84.90;103287.84;7358458;19;19975;-59
2023/01/23 08:57:12;;;;;;;;;;;;;;;1.17;84.79;103286.81;7359337;19;19926;-58
2023/01/23 08:59:39;;;;;;;;;;;;;;;1.22;84.31;103298.81;7358521;19;20312;-59
2023/01/23 09:02:05;;;;;;;;;;;;;;;1.25;84.37;103300.50;7357639;19;19919;-57
2023/01/23 09:04:32;;;;;;;;;;;;;;;1.33;84.38;103297.75;7358097;19;19915;-60
2023/01/23 09:06:59;;;;;;;;;;;;;;;1.34;84.18;103302.03;7360236;19;19919;-54
2023/01/23 09:09:27;;;;;;;;;;;;;;;1.35;84.01;103309.81;7355575;19;19966;-59
2023/01/23 09:11:54;;;;;;;;;;;;;;;1.37;83.98;103315.81;7359378;19;20233;-61
2023/01/23 09:14:21;;;;;;;;;;;;;;;1.38;83.52;103314.06;7359210;19;20799;-62
2023/01/23 09:16:47;;;;;;;;;;;;;;;1.40;83.54;103315.75;7358997;19;20260;-58
2023/01/23 09:19:14;;;;;;;;;;;;;;;1.39;83.23;103324.41;7360142;19;19952;-58
2023/01/23 09:21:41;;;;;;;;;;;;;;;1.41;83.33;103312.28;7359795;19;19930;-56
2023/01/23 09:24:08;;;;;;;;;;;;;;;1.63;90.44;103315.22;7358874;19;19934;-58
2023/01/23 09:26:35;;;;;;;;;;;;;;;1.89;91.74;103317.25;7359825;19;20475;-60
2023/01/23 09:29:01;;;;;;;;;;;;;;;2.05;90.80;103319.47;7357028;19;19922;-55
2023/01/23 09:31:28;;;;;;;;;;;;;;;2.03;87.19;103323.81;7359103;19;19962;-60
2023/01/23 09:33:56;;;;;;;;;;;;;;;2.01;84.47;103329.94;7359288;19;19923;-59
2023/01/23 09:36:23;;;;;;;;;;;;;;;1.98;82.38;103332.63;7360642;19;20392;-58
2023/01/23 09:39:07;;;;;;;;;;;;;;;2.00;81.98;103338.63;7358152;19;19956;-61
2023/01/23 09:41:35;;;;;;;;;;;;;;;2.02;81.75;103353.28;7359082;19;19931;-60
2023/01/23 09:44:06;;;;;;;;;;;;;;;2.06;81.52;103351.47;7356270;19;19923;-57
2023/01/23 09:46:39;;;;;;;;;;;;;;;2.05;81.56;103353.22;7365511;19;19951;-58
2023/01/23 09:49:13;;;;;;;;;;;;;;;2.08;81.87;103354.91;7364435;19;19918;-57
2023/01/23 09:51:55;;;;;;;;;;;;;;;2.10;81.68;103350.50;7366521;19;19938;-58
2023/01/23 09:54:48;;;;;;;;;;;;;;;2.13;81.79;103351.28;7364526;19;19945;-60
2023/01/23 09:57:19;;;;;;;;;;;;;;;2.19;81.71;103352.03;7364228;19;19915;-54
2023/01/23 10:00:02;;;;;;;;;;;;;;;2.23;81.84;103354.53;7366749;19;19923;-57
2023/01/23 10:02:29;;;;;;;;;;;;;;;2.30;81.69;103356.06;7365938;19;19918;-57
2023/01/23 10:05:01;;;;;;;;;;;;;;;2.36;81.25;103358.53;7365276;19;20151;-59
2023/01/23 10:07:41;;;;;;;;;;;;;;;2.43;81.18;103364.44;7369698;19;19922;-59
2023/01/23 10:10:46;;;;;;;;;;;;;;;2.50;81.16;103366.84;7364321;19;20356;-59
2023/01/23 10:13:15;;;;;;;;;;;;;;;2.58;80.94;103370.09;7360122;19;19926;-57
2023/01/23 10:15:56;;;;;;;;;;;;;;;2.65;81.13;103369.94;7360849;19;20631;-59
2023/01/23 10:18:46;;;;;;;;;;;;;;;2.71;81.17;103374.97;7363527;19;19919;-59
2023/01/23 10:21:40;;;;;;;;;;;;;;;2.77;81.02;103378.28;7363315;19;19926;-58
2023/01/23 10:24:12;;;;;;;;;;;;;;;2.83;81.02;103378.13;7363850;19;20084;-59
2023/01/23 10:26:41;;;;;;;;;;;;;;;2.90;81.15;103384.00;7366144;19;19919;-59
2023/01/23 10:29:22;;;;;;;;;;;;;;;2.94;81.31;103390.84;7364886;19;19943;-59
2023/01/23 10:31:55;;;;;;;;;;;;;;;2.99;81.46;103386.38;7366982;19;19931;-62
2023/01/23 10:34:33;;;;;;;;;;;;;;;3.06;81.27;103395.72;7363504;19;21905;-58
2023/01/23 10:37:17;;;;;;;;;;;;;;;3.07;81.23;103394.81;7364980;19;20621;-59
2023/01/23 10:39:57;;;;;;;;;;;;;;;3.09;81.02;103395.66;7362239;19;19943;-61
2023/01/23 10:42:25;;;;;;;;;;;;;;;3.15;81.18;103395.47;7364479;19;19934;-60
2023/01/23 10:44:59;;;;;;;;;;;;;;;3.20;81.41;103393.59;7363972;19;20960;-61
2023/01/23 10:47:30;;;;;;;;;;;;;;;3.28;81.52;103398.59;7363772;19;19923;-59
2023/01/23 10:49:59;;;;;;;;;;;;;;;3.33;81.46;103394.13;7362349;19;19919;-57
2023/01/23 10:52:35;;;;;;;;;;;;;;;3.36;81.56;103387.06;7337008;19;20996;-60
2023/01/23 10:55:05;;;;;;;;;;;;;;;3.42;81.49;103375.66;7351133;19;20636;-60
2023/01/23 10:57:42;;;;;;;;;;;;;;;3.49;81.59;103378.94;7361398;19;20483;-55
2023/01/23 11:00:27;;;;;;;;;;;;;;;3.52;81.20;103369.28;7361635;19;19923;-61
2023/01/23 11:02:54;;;;;;;;;;;;;;;3.54;81.27;103369.25;7361209;19;19929;-58
2023/01/23 11:05:35;;;;;;;;;;;;;;;3.58;81.19;103370.84;7358494;19;20002;-60
2023/01/23 11:08:27;;;;;;;;;;;;;;;3.65;81.38;103373.25;7362945;19;19919;-59
2023/01/23 11:11:10;;;;;;;;;;;;;;;3.75;81.22;103369.47;7363064;19;19945;-60
2023/01/23 11:13:37;;;;;;;;;;;;;;;3.84;81.42;103364.00;7360672;19;19915;-59
2023/01/23 11:16:04;;;;;;;;;;;;;;;3.96;81.15;103364.53;7361020;19;20312;-59
2023/01/23 11:18:33;;;;;;;;;;;;;;;4.02;81.49;103362.56;7360862;19;19983;-60
2023/01/23 11:21:00;;;;;;;;;;;;;;;4.12;81.88;103357.91;7362795;19;20360;-57
2023/01/23 11:23:28;;;;;;;;;;;;;;;4.19;81.41;103346.41;7361697;19;19923;-59
2023/01/23 11:25:55;;;;;;;;;;;;;;;4.25;81.04;103343.59;7359121;19;19919;-59
2023/01/23 11:28:29;;;;;;;;;;;;;;;4.31;80.75;103343.41;7358931;19;19918;-56
2023/01/23 11:31:02;;;;;;;;;;;;;;;4.38;80.85;103338.84;7361556;19;19922;-62
2023/01/23 11:33:51;;;;;;;;;;;;;;;4.44;80.47;103331.69;7363209;19;20016;-56
2023/01/23 11:36:18;;;;;;;;;;;;;;;4.51;81.05;103321.91;7361193;19;19919;-58
2023/01/23 11:38:57;;;;;;;;;;;;;;;4.53;80.73;103323.53;7359997;19;19929;-59
2023/01/23 11:41:27;;;;;;;;;;;;;;;4.60;80.33;103335.47;7360192;19;19927;-61
2023/01/23 11:43:54;;;;;;;;;;;;;;;4.66;80.35;103332.66;7358867;19;19957;-63
2023/01/23 11:46:21;;;;;;;;;;;;;;;4.75;80.88;103321.06;7360474;19;19923;-59
2023/01/23 11:48:48;;;;;;;;;;;;;;;4.80;80.82;103316.53;7361000;19;19923;-62
2023/01/23 11:51:20;;;;;;;;;;;;;;;4.86;79.61;103316.31;7357659;19;20311;-57
2023/01/23 11:54:07;;;;;;;;;;;;;;;4.92;79.78;103321.34;7359887;19;22024;-58
2023/01/23 11:56:46;;;;;;;;;;;;;;;5.01;79.92;103318.38;7355439;19;20196;-58
2023/01/23 11:59:15;;;;;;;;;;;;;;;5.08;79.79;103322.47;7357831;19;19941;-57
2023/01/23 12:01:47;;;;;;;;;;;;;;;5.15;80.44;103323.94;7361848;19;20594;-58
2023/01/23 12:04:56;;;;;;;;;;;;;;;5.26;80.31;103328.78;7358563;19;19979;-61
2023/01/23 12:07:23;;;;;;;;;;;;;;;5.32;79.53;103331.16;7356534;19;19958;-59
2023/01/23 12:09:53;;;;;;;;;;;;;;;5.39;79.28;103337.00;7361885;19;19929;-56
2023/01/23 12:12:20;;;;;;;;;;;;;;;5.44;79.36;103322.88;7358874;19;20195;-59
2023/01/23 12:14:50;;;;;;;;;;;;;;;5.51;79.37;103311.28;7361998;19;19927;-58
2023/01/23 12:17:20;;;;;;;;;;;;;;;5.62;79.74;103321.31;7360371;19;19933;-57
2023/01/23 12:19:55;;;;;;;;;;;;;;;5.70;78.92;103329.69;7357710;19;19919;-58
2023/01/23 12:22:42;;;;;;;;;;;;;;;5.76;79.08;103328.63;7362566;19;19926;-60
2023/01/23 12:25:27;;;;;;;;;;;;;;;5.82;78.75;103331.84;7355995;19;20019;-58
2023/01/23 12:28:00;;;;;;;;;;;;;;;5.88;78.17;103328.19;7359424;19;19935;-60
2023/01/23 12:30:27;;;;;;;;;;;;;;;5.90;78.73;103319.34;7362412;19;19929;-60
2023/01/23 12:33:13;;;;;;;;;;;;;;;5.92;78.35;103332.38;7357857;19;19919;-60
2023/01/23 12:35:42;;;;;;;;;;;;;;;6.00;78.17;103327.69;7357593;19;19921;-57
2023/01/23 12:38:18;;;;;;;;;;;;;;;6.06;78.12;103332.66;7359893;19;20507;-55
2023/01/23 12:40:57;;;;;;;;;;;;;;;6.06;77.34;103330.06;7354863;19;19926;-58
2023/01/23 12:43:37;;;;;;;;;;;;;;;6.07;77.77;103333.53;7359394;19;20139;-59
2023/01/23 12:46:16;;;;;;;;;;;;;;;6.12;77.55;103331.56;7360008;19;19982;-59
2023/01/23 12:49:03;;;;;;;;;;;;;;;6.19;77.70;103331.28;7359999;19;19918;-60
2023/01/23 12:51:35;;;;;;;;;;;;;;;6.22;77.18;103325.91;7358863;19;19929;-60
2023/01/23 12:54:05;;;;;;;;;;;;;;;6.25;76.61;103327.53;7357664;19;19922;-61
2023/01/23 12:56:34;;;;;;;;;;;;;;;6.29;77.38;103327.38;7355774;19;19970;-57
2023/01/23 12:59:10;;;;;;;;;;;;;;;6.34;78.11;103317.59;7359786;19;19922;-56
2023/01/23 13:01:53;;;;;;;;;;;;;;;6.38;77.24;103311.31;7359139;19;20017;-57
2023/01/23 13:04:34;;;;;;;;;;;;;;;6.40;75.81;103303.38;7360488;19;20255;-60
2023/01/23 13:07:10;;;;;;;;;;;;;;;6.44;75.25;103297.97;7357846;19;19925;-58
2023/01/23 13:09:40;;;;;;;;;;;;;;;6.48;72.78;103300.44;7360371;19;20489;-59
2023/01/23 13:12:18;;;;;;;;;;;;;;;6.56;71.20;103304.44;7359645;19;19915;-57